• Join FlightAware (Why Join?)
  • Login
  • US Flag GB Flag 
09:50 EDT


 

Airport Tracker/Info


-or-


 

Live Flight TrackerFlight Track Log ✈ N920AC ✈ 10-Jul-2013 ✈ KORL - KAPF

Flight Track Log - Related Links

Times and Time Zones

All times are in EDT time to prevent confusion due to time zone crossing. See the N920AC flight status page for this flight to view local times or setup timezone preferences in your user account.

Time Position Orientation Groundspeed Altitude Reporting Facility
EDT Latitude Longitude Course Direction KTS MPH feet Rate Location/Type
15:07 28.5500 -81.3167 189° South 75 86 900  Level Orlando TRACON
15:08 28.5833 -81.3167 360° North 99 114 1,000 120 Climbing Orlando TRACON
15:09 28.5833 -81.3500 270° West 91 105 1,200 360 Climbing Orlando TRACON
15:10 28.5833 -81.3667 270° West 87 100 1,800 540 Climbing Orlando TRACON
15:11 28.5667 -81.4000 240° Southwest 93 107 2,400 240 Climbing Orlando TRACON
15:12 28.3825 -81.3637 189° South  Level Estimated
15:12 28.5500 -81.4167 221° Southwest 106 122 2,300  Level Orlando TRACON
15:13 28.5167 -81.4333 204° Southwest 95 109 2,800 480 Climbing Orlando TRACON
15:14 28.5000 -81.4500 221° Southwest 87 100 3,300 300 Climbing Orlando TRACON
15:15 28.4833 -81.4833 240° Southwest 98 113 3,500 60 Climbing Orlando TRACON
15:16 28.4667 -81.5000 221° Southwest 98 113 3,500  Level Orlando TRACON
15:17 28.4500 -81.5167 221° Southwest 92 106 3,500  Level Orlando TRACON
15:18 28.4167 -81.5167 180° South 90 104 3,500  Level Orlando TRACON
15:19 28.4000 -81.5333 221° Southwest 92 106 3,600  Climbing Orlando TRACON
15:20 28.3667 -81.5333 180° South 93 107 3,500 -60 Descending Orlando TRACON
15:21 28.3500 -81.5333 180° South 90 104 3,500  Level Orlando TRACON
15:22 28.3167 -81.5500 204° Southwest 88 101 3,500  Level Orlando TRACON
15:23 28.3000 -81.5500 180° South 85 98 3,500  Level Orlando TRACON
15:24 28.2667 -81.5500 180° South 86 99 3,500  Level Orlando TRACON
15:25 28.2500 -81.5500 180° South 92 106 3,500  Level Orlando TRACON
15:26 28.2167 -81.5667 204° Southwest 98 113 3,500  Level Orlando TRACON
15:27 28.2000 -81.5667 180° South 95 109 3,500  Level Orlando TRACON
15:28 28.1667 -81.5667 180° South 97 112 3,500  Level Orlando TRACON
15:29 28.1333 -81.5833 204° Southwest 96 110 3,500  Level Orlando TRACON
15:30 28.1167 -81.5833 180° South 106 122 3,500 -60 Level Orlando TRACON
15:31 28.0833 -81.5833 180° South 106 122 3,400 -120 Descending Orlando TRACON
15:31 28.0661 -81.5953 211° Southwest 105 121 3,400 120 Level Miami Center
15:32 28.0431 -81.5992 188° South 105 121 3,600 60 Climbing Miami Center
15:33 28.0156 -81.6050 191° South 105 121 3,600 -60 Level Miami Center
15:34 27.9861 -81.6108 190° South 105 121 3,500 -60 Descending Miami Center
15:35 27.9589 -81.6167 191° South 105 121 3,500  Level Miami Center
15:36 27.9317 -81.6203 187° South 105 121 3,500  Level Miami Center
15:37 27.9044 -81.6192 178° South 105 121 3,500 -60 Level Miami Center
15:38 27.8794 -81.6206 183° South 105 121 3,400 -60 Descending Miami Center
15:39 27.8519 -81.6311 199° South 105 121 3,400 60 Level Miami Center
15:40 27.8267 -81.6417 200° South 105 121 3,600  Climbing Miami Center
15:41 27.7972 -81.6453 186° South 105 121 3,500 -60 Descending Miami Center
15:42 27.7703 -81.6417 173° South 105 121 3,500  Level Miami Center
15:43 27.7433 -81.6358 169° South 105 121 3,500  Level Miami Center
15:44 27.7161 -81.6369 182° South 105 121 3,500  Level Miami Center
15:45 27.6889 -81.6406 187° South 105 121 3,500  Level Miami Center
15:46 27.6617 -81.6464 191° South 105 121 3,500  Level Miami Center
15:47 27.6322 -81.6547 194° South 105 121 3,500  Level Miami Center
15:48 27.6050 -81.6558 182° South 105 121 3,500  Level Miami Center
15:49 27.5778 -81.6594 187° South 105 121 3,500  Level Miami Center
15:50 27.5506 -81.6631 187° South 105 121 3,500  Level Miami Center
15:51 27.5231 -81.6689 191° South 105 121 3,600  Climbing Miami Center
15:52 27.4958 -81.6747 191° South 105 121 3,500 -60 Descending Miami Center
15:53 27.4706 -81.6831 196° South 105 121 3,500  Level Miami Center
15:54 27.4469 -81.6983 210° Southwest 105 121 3,600 -60 Climbing Miami Center
15:55 27.4158 -81.6969 178° South 105 121 3,400 -120 Descending Miami Center
15:56 27.3886 -81.6983 183° South 105 121 3,400  Level Miami Center
15:57 27.3614 -81.6994 182° South 105 121 3,400  Level Miami Center
15:58 27.3342 -81.7006 182° South 105 121 3,500  Climbing Miami Center
15:59 27.3069 -81.7019 183° South 105 121 3,500 -60 Level Miami Center
16:00 27.2797 -81.7053 186° South 105 121 3,400  Descending Miami Center
16:01 27.2547 -81.7089 187° South 105 121 3,500  Climbing Miami Center
16:02 27.2294 -81.7125 187° South 100 115 3,500  Level Miami Center
16:03 27.2042 -81.7161 187° South 100 115 3,600  Climbing Miami Center
16:04 27.1747 -81.7244 194° South 105 121 3,500 -60 Descending Miami Center
16:05 27.1472 -81.7347 198° South 105 121 3,500 -60 Level Miami Center
16:06 27.1222 -81.7383 187° South 105 121 3,400 -60 Descending Miami Center
16:07 27.0947 -81.7467 195° South 105 121 3,400  Level Miami Center
16:08 27.0675 -81.7500 186° South 105 121 3,400  Level Miami Center
16:09 27.0425 -81.7514 183° South 105 121 3,400  Level Miami Center
16:10 27.0131 -81.7547 186° South 105 121 3,400  Level Miami Center
16:12 26.9888 -81.7330 141° Southeast  Level FlightAware Approximate
16:19 26.7914 -81.7431 185° South  Level Estimated
16:20 26.7634 -81.7389 172° South  Level FlightAware Approximate
16:21 26.7355 -81.7346 172° South  Level FlightAware Approximate
16:22 26.7075 -81.7304 172° South  Level FlightAware Approximate
16:23 26.6795 -81.7262 172° South  Level FlightAware Approximate
16:24 26.6516 -81.7219 172° South  Level FlightAware Approximate
16:25 26.6234 -81.7250 186° South  Level Estimated
16:26 26.5953 -81.7267 183° South  Level FlightAware Approximate
16:27 26.5671 -81.7283 183° South  Level FlightAware Approximate
16:28 26.5389 -81.7300 183° South  Level FlightAware Approximate
16:29 26.5107 -81.7317 183° South  Level FlightAware Approximate
16:30 26.4826 -81.7352 180° South  Level Estimated
16:31 26.4544 -81.7341 178° South  Level FlightAware Approximate
16:32 26.4264 -81.7380 190° South  Level Estimated
16:33 26.3985 -81.7424 188° South  Level FlightAware Approximate
16:34 26.3705 -81.7468 188° South  Level FlightAware Approximate
16:35 26.3425 -81.7505 187° South  Level Estimated
16:36 26.3145 -81.7546 188° South  Level FlightAware Approximate
16:37 26.2865 -81.7588 188° South  Level FlightAware Approximate
16:38 26.2585 -81.7629 188° South  Level FlightAware Approximate
16:39 26.2305 -81.7663 180° South  Level Estimated
16:40 26.2022 -81.7664 180° South  Level FlightAware Approximate
16:41 26.1740 -81.7666 180° South  Level FlightAware Approximate
16:42 26.1500 -81.7667 180° South  Level FlightAware Approximate
16:43 26.1524 -81.7756 180° South  Level Estimated
16:44 26.1524 -81.7756 180° South  Level Estimated
16:45 26.1524 -81.7756 180° South  Level Estimated
16:46 26.1524 -81.7756 180° South  Level Estimated
16:47 26.1524 -81.7756 180° South  Level Estimated
16:48 26.1524 -81.7756 180° South  Level Estimated
16:49 26.1524 -81.7756 180° South  Level Estimated
16:50 26.1524 -81.7756 180° South  Level Estimated
16:51 26.1524 -81.7756 180° South  Level Estimated